Time;durP1;ratioP1;P1;durP2;ratioP2;P2;SDS_P1;SDS_P2;PMS_P1;PMS_P2;Temp;Humidity;BMP_temperature;BMP_pressure;BME280_temperature;BME280_humidity;BME280_pressure;Samples;Min_cycle;Max_cycle;Signal;HPM_P1;HPM_P2
2024/03/06 00:01:43;;;;;;;14.80;3.83;;;;;;;;;;4974349;28;20023;-95
2024/03/06 00:04:08;;;;;;;19.13;4.07;;;;;;;;;;4973925;28;20477;-93
2024/03/06 00:06:34;;;;;;;19.55;3.83;;;;;;;;;;4975139;28;20781;-92
2024/03/06 00:08:59;;;;;;;18.77;4.18;;;;;;;;;;4974128;28;20358;-92
2024/03/06 00:11:24;;;;;;;14.48;2.80;;;;;;;;;;4974064;28;20035;-95
2024/03/06 00:13:50;;;;;;;12.90;3.00;;;;;;;;;;4973969;28;20023;-94
2024/03/06 00:16:15;;;;;;;10.33;3.03;;;;;;;;;;4975571;28;20015;-93
2024/03/06 00:18:40;;;;;;;14.48;3.03;;;;;;;;;;4973773;28;20269;-92
2024/03/06 00:21:06;;;;;;;18.20;3.60;;;;;;;;;;4975075;28;20438;-93
2024/03/06 00:23:32;;;;;;;22.40;6.03;;;;;;;;;;4975023;28;20245;-92
2024/03/06 00:25:57;;;;;;;19.98;3.85;;;;;;;;;;4973691;28;20050;-92
2024/03/06 00:28:22;;;;;;;18.63;3.77;;;;;;;;;;4974611;28;20099;-94
2024/03/06 00:30:47;;;;;;;16.55;4.95;;;;;;;;;;4974811;28;20299;-92
2024/03/06 00:33:13;;;;;;;20.30;3.13;;;;;;;;;;4974571;28;20023;-93
2024/03/06 00:35:38;;;;;;;17.88;3.53;;;;;;;;;;4974364;28;20066;-92
2024/03/06 00:38:03;;;;;;;12.75;2.72;;;;;;;;;;4974407;28;20042;-93
2024/03/06 00:40:31;;;;;;;15.63;3.55;;;;;;;;;;4974060;28;20026;-92
2024/03/06 00:42:57;;;;;;;12.73;3.33;;;;;;;;;;4974311;28;20026;-92
2024/03/06 00:45:22;;;;;;;13.30;3.13;;;;;;;;;;4974244;28;20432;-92
2024/03/06 00:47:48;;;;;;;16.55;3.42;;;;;;;;;;4973310;28;20495;-92
2024/03/06 00:50:13;;;;;;;24.48;5.10;;;;;;;;;;4972875;28;20027;-92
2024/03/06 00:52:38;;;;;;;20.48;4.10;;;;;;;;;;4973027;28;20053;-92
2024/03/06 00:55:05;;;;;;;18.43;3.17;;;;;;;;;;4973021;28;20033;-95
2024/03/06 00:57:30;;;;;;;13.60;3.33;;;;;;;;;;4973890;28;20809;-94
2024/03/06 00:59:55;;;;;;;18.80;3.05;;;;;;;;;;4972989;28;20007;-94
2024/03/06 01:02:20;;;;;;;24.90;4.57;;;;;;;;;;4972512;28;20373;-95
2024/03/06 01:04:46;;;;;;;16.98;4.20;;;;;;;;;;4972914;28;20758;-96
2024/03/06 01:07:11;;;;;;;19.70;3.07;;;;;;;;;;4972817;28;20469;-95
2024/03/06 01:09:36;;;;;;;15.93;4.50;;;;;;;;;;4974029;28;20265;-94
2024/03/06 01:12:02;;;;;;;16.65;3.72;;;;;;;;;;4973841;28;20273;-94
2024/03/06 01:14:27;;;;;;;25.73;5.13;;;;;;;;;;4973988;28;20093;-94
2024/03/06 01:16:52;;;;;;;23.75;5.25;;;;;;;;;;4972592;28;20078;-94
2024/03/06 01:19:17;;;;;;;30.13;4.53;;;;;;;;;;4973231;28;20022;-94
2024/03/06 01:21:42;;;;;;;15.27;3.80;;;;;;;;;;4972443;28;20253;-95
2024/03/06 01:24:07;;;;;;;15.40;3.30;;;;;;;;;;4973857;28;20106;-95
2024/03/06 01:26:33;;;;;;;12.30;4.13;;;;;;;;;;4972649;28;20260;-93
2024/03/06 01:28:58;;;;;;;13.32;3.17;;;;;;;;;;4972695;28;20813;-94
2024/03/06 01:31:23;;;;;;;18.70;4.37;;;;;;;;;;4972469;28;20033;-95
2024/03/06 01:33:48;;;;;;;13.32;4.35;;;;;;;;;;4972413;28;20597;-94
2024/03/06 01:36:14;;;;;;;10.83;2.97;;;;;;;;;;4972319;28;20030;-96
2024/03/06 01:38:39;;;;;;;11.18;3.08;;;;;;;;;;4972616;28;20667;-95
2024/03/06 01:41:04;;;;;;;10.30;2.63;;;;;;;;;;4973557;28;20023;-94
2024/03/06 01:43:36;;;;;;;20.65;4.90;;;;;;;;;;4972387;28;20109;-94
2024/03/06 01:46:01;;;;;;;;;;;;;;;;;;4972712;28;20456;-94
2024/03/06 01:48:28;;;;;;;16.70;3.00;;;;;;;;;;4972764;28;19946;-95
2024/03/06 01:50:55;;;;;;;8.88;2.85;;;;;;;;;;4973814;28;20019;-95
2024/03/06 01:53:20;;;;;;;26.88;3.50;;;;;;;;;;4973591;28;20031;-93
2024/03/06 01:55:47;;;;;;;15.40;3.35;;;;;;;;;;4971990;28;20037;-94
2024/03/06 01:58:13;;;;;;;15.27;2.88;;;;;;;;;;4972192;28;20030;-93
2024/03/06 02:00:39;;;;;;;13.25;3.08;;;;;;;;;;4973660;28;20019;-94
2024/03/06 02:03:05;;;;;;;15.70;3.15;;;;;;;;;;4972314;28;20117;-94
2024/03/06 02:05:31;;;;;;;10.15;2.90;;;;;;;;;;4972012;28;20496;-94
2024/03/06 02:07:57;;;;;;;15.98;3.17;;;;;;;;;;4972204;28;20050;-94
2024/03/06 02:10:22;;;;;;;14.23;2.85;;;;;;;;;;4973296;28;20129;-94
2024/03/06 02:12:48;;;;;;;15.85;2.70;;;;;;;;;;4973448;28;20438;-95
2024/03/06 02:15:14;;;;;;;9.00;3.30;;;;;;;;;;4973741;28;20023;-94
2024/03/06 02:17:40;;;;;;;12.25;3.55;;;;;;;;;;4975964;28;20500;-94
2024/03/06 02:20:06;;;;;;;11.55;2.72;;;;;;;;;;4975823;28;20019;-94
2024/03/06 02:22:32;;;;;;;13.65;3.10;;;;;;;;;;4975832;28;20477;-94
2024/03/06 02:24:57;;;;;;;17.33;4.45;;;;;;;;;;4975704;28;20429;-93
2024/03/06 02:27:23;;;;;;;12.75;3.03;;;;;;;;;;4976798;28;20031;-94
2024/03/06 02:29:48;;;;;;;17.55;3.53;;;;;;;;;;4975818;28;20019;-94
2024/03/06 02:32:18;;;;;;;12.03;3.33;;;;;;;;;;4975716;28;20305;-95
2024/03/06 02:34:43;;;;;;;11.45;2.83;;;;;;;;;;4975556;28;20260;-93
2024/03/06 02:37:09;;;;;;;13.27;2.92;;;;;;;;;;4976524;28;20488;-93
2024/03/06 02:39:34;;;;;;;14.95;2.80;;;;;;;;;;4975522;28;20022;-95
2024/03/06 02:41:59;;;;;;;13.87;2.90;;;;;;;;;;4975479;28;20113;-94
2024/03/06 02:44:25;;;;;;;9.57;2.63;;;;;;;;;;4976813;28;20347;-94
2024/03/06 02:46:50;;;;;;;10.18;2.97;;;;;;;;;;4976813;28;20299;-93
2024/03/06 02:49:16;;;;;;;12.75;3.80;;;;;;;;;;4975473;28;20077;-94
2024/03/06 02:51:41;;;;;;;14.75;2.75;;;;;;;;;;4976503;28;20053;-94
2024/03/06 02:54:06;;;;;;;10.73;2.80;;;;;;;;;;4976729;28;20113;-93
2024/03/06 02:56:32;;;;;;;15.07;3.10;;;;;;;;;;4976816;28;20492;-94
2024/03/06 02:58:57;;;;;;;14.38;2.92;;;;;;;;;;4976822;28;20805;-94
2024/03/06 03:01:23;;;;;;;22.42;3.50;;;;;;;;;;4975511;28;20034;-95
2024/03/06 03:03:48;;;;;;;17.98;3.78;;;;;;;;;;4976485;28;20094;-94
2024/03/06 03:06:14;;;;;;;15.85;5.15;;;;;;;;;;4975499;28;20026;-95
2024/03/06 03:08:39;;;;;;;18.50;3.20;;;;;;;;;;4976519;28;20078;-96
2024/03/06 03:11:04;;;;;;;14.95;3.17;;;;;;;;;;4974838;28;20223;-95
2024/03/06 03:13:30;;;;;;;17.83;3.67;;;;;;;;;;4975282;28;20402;-93
2024/03/06 03:15:55;;;;;;;15.85;4.30;;;;;;;;;;4975389;28;20082;-94
2024/03/06 03:18:21;;;;;;;14.95;3.15;;;;;;;;;;4976265;28;20026;-94
2024/03/06 03:20:47;;;;;;;13.67;3.17;;;;;;;;;;4976349;28;20106;-95
2024/03/06 03:23:15;;;;;;;12.50;3.30;;;;;;;;;;4975213;28;20261;-95
2024/03/06 03:25:41;;;;;;;11.82;3.15;;;;;;;;;;4974572;28;20019;-96
2024/03/06 03:28:06;;;;;;;18.55;3.30;;;;;;;;;;4976148;28;20023;-94
2024/03/06 03:30:32;;;;;;;20.15;4.10;;;;;;;;;;4975055;28;20026;-94
2024/03/06 03:32:57;;;;;;;15.32;2.83;;;;;;;;;;4974737;28;20019;-94
2024/03/06 03:35:25;;;;;;;11.65;2.88;;;;;;;;;;4974448;28;20030;-93
2024/03/06 03:37:51;;;;;;;16.15;3.00;;;;;;;;;;4974825;28;20019;-94
2024/03/06 03:40:17;;;;;;;12.25;3.38;;;;;;;;;;4974624;28;20113;-94
2024/03/06 03:42:43;;;;;;;12.35;3.50;;;;;;;;;;4975587;28;20437;-94
2024/03/06 03:45:08;;;;;;;17.75;3.15;;;;;;;;;;4974413;28;20019;-94
2024/03/06 03:47:34;;;;;;;14.18;2.97;;;;;;;;;;4974451;28;20022;-94
2024/03/06 03:49:59;;;;;;;18.25;3.08;;;;;;;;;;4974310;28;20035;-95
2024/03/06 03:52:24;;;;;;;13.95;2.70;;;;;;;;;;4975389;28;20396;-95
2024/03/06 03:54:50;;;;;;;14.57;2.53;;;;;;;;;;4974164;28;20023;-94
2024/03/06 03:57:16;;;;;;;16.00;2.70;;;;;;;;;;4974289;28;20019;-94
2024/03/06 03:59:41;;;;;;;12.00;3.35;;;;;;;;;;4975883;28;20046;-93
2024/03/06 04:02:07;;;;;;;12.97;2.70;;;;;;;;;;4974398;28;20062;-95
2024/03/06 04:04:33;;;;;;;13.38;2.85;;;;;;;;;;4974455;28;20315;-94
2024/03/06 04:06:59;;;;;;;15.25;2.85;;;;;;;;;;4973734;28;20031;-94
2024/03/06 04:09:24;;;;;;;20.38;3.55;;;;;;;;;;4974117;28;20081;-96
2024/03/06 04:11:50;;;;;;;9.60;2.72;;;;;;;;;;4974035;28;20397;-93
2024/03/06 04:14:15;;;;;;;10.90;2.70;;;;;;;;;;4975262;28;20014;-93
2024/03/06 04:16:40;;;;;;;13.20;3.53;;;;;;;;;;4975053;28;20650;-94
2024/03/06 04:19:05;;;;;;;11.88;3.13;;;;;;;;;;4975082;28;20362;-94
2024/03/06 04:21:30;;;;;;;10.02;2.67;;;;;;;;;;4973803;28;20022;-93
2024/03/06 04:23:56;;;;;;;14.82;3.40;;;;;;;;;;4973798;28;20026;-93
2024/03/06 04:26:21;;;;;;;17.60;2.90;;;;;;;;;;4974805;28;20014;-94
2024/03/06 04:28:46;;;;;;;12.07;2.22;;;;;;;;;;4974789;28;20054;-93
2024/03/06 04:31:11;;;;;;;6.67;2.30;;;;;;;;;;4973728;28;20109;-95
2024/03/06 04:33:38;;;;;;;12.32;3.20;;;;;;;;;;4974970;28;20296;-94
2024/03/06 04:36:05;;;;;;;9.77;2.50;;;;;;;;;;4973761;28;20022;-94
2024/03/06 04:38:30;;;;;;;8.38;2.58;;;;;;;;;;4973028;28;20805;-94
2024/03/06 04:40:56;;;;;;;21.30;2.92;;;;;;;;;;4973825;28;20104;-94
2024/03/06 04:43:21;;;;;;;6.97;2.30;;;;;;;;;;4967669;28;20470;-94
2024/03/06 04:45:46;;;;;;;10.47;2.90;;;;;;;;;;4953906;28;20023;-94
2024/03/06 04:48:12;;;;;;;17.63;3.17;;;;;;;;;;4954075;28;20261;-93
2024/03/06 04:50:37;;;;;;;14.52;2.55;;;;;;;;;;4955384;28;20055;-94
2024/03/06 04:53:02;;;;;;;8.70;2.20;;;;;;;;;;4955417;28;20461;-95
2024/03/06 04:55:27;;;;;;;10.20;3.53;;;;;;;;;;4953839;28;20539;-93
2024/03/06 04:57:53;;;;;;;16.53;3.63;;;;;;;;;;4953356;28;20450;-94
2024/03/06 05:00:19;;;;;;;11.05;2.47;;;;;;;;;;4954215;28;20329;-94
2024/03/06 05:02:44;;;;;;;12.02;2.33;;;;;;;;;;4953967;28;20389;-95
2024/03/06 05:05:09;;;;;;;7.57;2.60;;;;;;;;;;4953738;28;20027;-94
2024/03/06 05:07:34;;;;;;;11.88;2.17;;;;;;;;;;4955113;28;20497;-94
2024/03/06 05:10:00;;;;;;;13.10;2.60;;;;;;;;;;4953816;28;20051;-94
2024/03/06 05:12:25;;;;;;;8.70;2.20;;;;;;;;;;4954927;28;20336;-94
2024/03/06 05:14:51;;;;;;;14.65;2.53;;;;;;;;;;4954857;28;20031;-93
2024/03/06 05:17:17;;;;;;;14.35;2.90;;;;;;;;;;4953641;28;20026;-94
2024/03/06 05:19:42;;;;;;;12.27;2.35;;;;;;;;;;4953546;28;20504;-93
2024/03/06 05:22:07;;;;;;;13.83;3.00;;;;;;;;;;4954686;28;20023;-94
2024/03/06 05:24:32;;;;;;;12.27;2.75;;;;;;;;;;4953502;28;20266;-94
2024/03/06 05:26:58;;;;;;;8.47;2.70;;;;;;;;;;4953497;28;20026;-95
2024/03/06 05:29:23;;;;;;;13.83;2.70;;;;;;;;;;4954698;28;20386;-95
2024/03/06 05:31:48;;;;;;;12.50;3.53;;;;;;;;;;4954852;28;20285;-94
2024/03/06 05:34:13;;;;;;;19.45;2.90;;;;;;;;;;4953404;28;20012;-94
2024/03/06 05:36:38;;;;;;;13.70;5.00;;;;;;;;;;4954755;28;20023;-94
2024/03/06 05:39:07;;;;;;;16.95;4.22;;;;;;;;;;4953473;28;20312;-94
2024/03/06 05:41:33;;;;;;;7.90;2.10;;;;;;;;;;4954316;28;20017;-94
2024/03/06 05:43:58;;;;;;;13.82;3.60;;;;;;;;;;4953613;28;20394;-94
2024/03/06 05:46:23;;;;;;;17.00;3.30;;;;;;;;;;4953371;28;20015;-94
2024/03/06 05:48:49;;;;;;;13.10;2.83;;;;;;;;;;4954910;28;20056;-94
2024/03/06 05:51:15;;;;;;;9.82;2.50;;;;;;;;;;4957140;28;20031;-94
2024/03/06 05:53:42;;;;;;;11.13;2.70;;;;;;;;;;4957588;28;20470;-94
2024/03/06 05:56:07;;;;;;;11.38;2.40;;;;;;;;;;4957601;28;20800;-93
2024/03/06 05:58:34;;;;;;;11.90;2.65;;;;;;;;;;4957428;28;20123;-93
2024/03/06 06:00:59;;;;;;;15.88;3.22;;;;;;;;;;4957178;28;20078;-94
2024/03/06 06:03:24;;;;;;;11.85;3.50;;;;;;;;;;4957291;28;20110;-93
2024/03/06 06:05:49;;;;;;;7.27;2.40;;;;;;;;;;4958047;28;20036;-94
2024/03/06 06:08:15;;;;;;;8.20;2.50;;;;;;;;;;4957382;28;20263;-93
2024/03/06 06:10:40;;;;;;;9.17;2.73;;;;;;;;;;4956988;28;20035;-94
2024/03/06 06:13:05;;;;;;;9.80;2.70;;;;;;;;;;4957000;28;20292;-94
2024/03/06 06:15:30;;;;;;;10.38;3.58;;;;;;;;;;4958219;28;20261;-94
2024/03/06 06:17:56;;;;;;;12.80;3.25;;;;;;;;;;4956460;28;20058;-93
2024/03/06 06:20:21;;;;;;;10.67;3.50;;;;;;;;;;4956812;28;20118;-94
2024/03/06 06:22:46;;;;;;;13.05;3.20;;;;;;;;;;4956846;28;20336;-94
2024/03/06 06:25:12;;;;;;;7.93;2.92;;;;;;;;;;4957840;28;20478;-95
2024/03/06 06:27:38;;;;;;;7.07;2.65;;;;;;;;;;4956809;28;20050;-94
2024/03/06 06:30:03;;;;;;;12.57;3.08;;;;;;;;;;4956672;28;20035;-94
2024/03/06 06:32:28;;;;;;;16.98;3.50;;;;;;;;;;4958097;28;20398;-95
2024/03/06 06:34:53;;;;;;;11.73;3.27;;;;;;;;;;4956504;28;20030;-93
2024/03/06 06:37:19;;;;;;;13.60;3.77;;;;;;;;;;4957666;28;20256;-94
2024/03/06 06:39:44;;;;;;;14.25;4.07;;;;;;;;;;4957519;28;20276;-94
2024/03/06 06:42:10;;;;;;;9.10;2.85;;;;;;;;;;4957748;28;20027;-95
2024/03/06 06:44:36;;;;;;;11.30;2.80;;;;;;;;;;4956206;28;20024;-93
2024/03/06 06:47:01;;;;;;;10.00;2.90;;;;;;;;;;4957498;28;20029;-95
2024/03/06 06:49:26;;;;;;;15.33;4.73;;;;;;;;;;4956163;28;20027;-93
2024/03/06 06:51:51;;;;;;;8.80;2.93;;;;;;;;;;4957306;28;20285;-93
2024/03/06 06:54:16;;;;;;;13.67;2.93;;;;;;;;;;4956962;28;20246;-94
2024/03/06 06:56:42;;;;;;;14.52;3.30;;;;;;;;;;4957351;28;20291;-94
2024/03/06 06:59:07;;;;;;;16.02;4.68;;;;;;;;;;4956995;28;20046;-92
2024/03/06 07:01:32;;;;;;;17.07;3.90;;;;;;;;;;4956218;28;20030;-95
2024/03/06 07:03:58;;;;;;;8.52;4.80;;;;;;;;;;4955029;28;20272;-92
2024/03/06 07:06:23;;;;;;;8.15;3.60;;;;;;;;;;4956526;28;20050;-92
2024/03/06 07:08:50;;;;;;;7.65;3.47;;;;;;;;;;4956116;28;20018;-94
2024/03/06 07:11:16;;;;;;;9.98;3.42;;;;;;;;;;4956047;28;20102;-90
2024/03/06 07:13:41;;;;;;;10.85;4.20;;;;;;;;;;4956003;28;20018;-89
2024/03/06 07:16:07;;;;;;;8.43;3.25;;;;;;;;;;4955905;28;20023;-92
2024/03/06 07:18:32;;;;;;;29.75;7.80;;;;;;;;;;4962808;28;20026;-92
2024/03/06 07:20:57;;;;;;;14.70;3.60;;;;;;;;;;4984368;28;20025;-92
2024/03/06 07:23:23;;;;;;;17.93;3.93;;;;;;;;;;4975366;28;20023;-92
2024/03/06 07:25:48;;;;;;;17.45;3.88;;;;;;;;;;4991540;28;20256;-92
2024/03/06 07:28:13;;;;;;;14.13;3.07;;;;;;;;;;4994775;28;20014;-92
2024/03/06 07:30:38;;;;;;;10.40;4.07;;;;;;;;;;4994319;28;20633;-92
2024/03/06 07:33:04;;;;;;;12.75;5.05;;;;;;;;;;4993884;28;20734;-92
2024/03/06 07:35:29;;;;;;;9.77;4.63;;;;;;;;;;4981503;28;20057;-92
2024/03/06 07:37:55;;;;;;;15.18;5.95;;;;;;;;;;4975537;28;20528;-95
2024/03/06 07:40:20;;;;;;;9.67;5.13;;;;;;;;;;4974405;28;20465;-93
2024/03/06 07:42:45;;;;;;;11.63;5.60;;;;;;;;;;4977782;28;20782;-93
2024/03/06 07:45:11;;;;;;;8.13;5.20;;;;;;;;;;4975717;28;20030;-91
2024/03/06 07:47:37;;;;;;;8.88;4.97;;;;;;;;;;4973575;28;20023;-92
2024/03/06 07:50:03;;;;;;;11.30;4.85;;;;;;;;;;4991961;28;20014;-93
2024/03/06 07:52:28;;;;;;;10.60;5.22;;;;;;;;;;4994353;28;20025;-93
2024/03/06 07:54:53;;;;;;;9.37;5.13;;;;;;;;;;4984703;28;20480;-92
2024/03/06 07:57:19;;;;;;;9.77;5.33;;;;;;;;;;4973111;28;20379;-92
2024/03/06 07:59:44;;;;;;;19.05;5.90;;;;;;;;;;4974441;28;20261;-93
2024/03/06 08:02:09;;;;;;;16.20;5.43;;;;;;;;;;4973809;28;20042;-93
2024/03/06 08:04:35;;;;;;;14.75;5.07;;;;;;;;;;4983561;28;20634;-92
2024/03/06 08:07:01;;;;;;;14.75;4.70;;;;;;;;;;4987162;28;20050;-94
2024/03/06 08:09:28;;;;;;;15.68;6.20;;;;;;;;;;4976768;28;20026;-93
2024/03/06 08:11:54;;;;;;;12.23;4.97;;;;;;;;;;4972546;28;20058;-93
2024/03/06 08:14:19;;;;;;;12.07;4.95;;;;;;;;;;4973123;28;20067;-93
2024/03/06 08:16:44;;;;;;;14.38;4.43;;;;;;;;;;4974273;28;20022;-92
2024/03/06 08:19:10;;;;;;;14.73;5.10;;;;;;;;;;4986149;28;20081;-92
2024/03/06 08:21:35;;;;;;;10.85;6.00;;;;;;;;;;4978044;28;20260;-93
2024/03/06 08:24:00;;;;;;;16.60;5.50;;;;;;;;;;4973996;28;20090;-93
2024/03/06 08:26:25;;;;;;;10.37;5.30;;;;;;;;;;4987199;28;20022;-95
2024/03/06 08:28:51;;;;;;;13.70;5.07;;;;;;;;;;4990397;28;20275;-92
2024/03/06 08:31:16;;;;;;;15.82;4.80;;;;;;;;;;4993870;28;20491;-94
2024/03/06 08:33:42;;;;;;;10.98;5.05;;;;;;;;;;4989963;28;20105;-92
2024/03/06 08:36:07;;;;;;;12.40;5.23;;;;;;;;;;4991992;28;20041;-96
2024/03/06 08:38:32;;;;;;;12.18;6.13;;;;;;;;;;4980152;28;20290;-93
2024/03/06 08:40:57;;;;;;;13.83;6.07;;;;;;;;;;4974135;28;20106;-92
2024/03/06 08:43:23;;;;;;;11.70;6.90;;;;;;;;;;4986773;28;20741;-93
2024/03/06 08:45:48;;;;;;;12.68;7.20;;;;;;;;;;4991759;28;20278;-92
2024/03/06 08:48:13;;;;;;;14.90;5.53;;;;;;;;;;4992724;28;20022;-93
2024/03/06 08:50:38;;;;;;;11.02;6.53;;;;;;;;;;4993786;28;20276;-95
2024/03/06 08:53:13;;;;;;;11.57;6.18;;;;;;;;;;4981953;28;20027;-94
2024/03/06 08:55:39;;;;;;;11.30;6.72;;;;;;;;;;4977171;28;20444;-94
2024/03/06 08:58:04;;;;;;;10.15;5.53;;;;;;;;;;4974137;28;20023;-94
2024/03/06 09:00:29;;;;;;;7.80;5.60;;;;;;;;;;4984674;28;20030;-94
2024/03/06 09:02:54;;;;;;;9.68;5.82;;;;;;;;;;4991333;28;20264;-94
2024/03/06 09:05:21;;;;;;;8.80;5.63;;;;;;;;;;4978373;28;20030;-95
2024/03/06 09:07:47;;;;;;;8.68;4.93;;;;;;;;;;4972925;28;20023;-92
2024/03/06 09:10:12;;;;;;;15.40;6.53;;;;;;;;;;4977355;28;20370;-95
2024/03/06 09:12:38;;;;;;;12.15;6.03;;;;;;;;;;4971776;28;20674;-93
2024/03/06 09:15:03;;;;;;;10.88;6.10;;;;;;;;;;4972099;28;20015;-93
2024/03/06 09:17:29;;;;;;;9.60;6.30;;;;;;;;;;4980080;28;20507;-92
2024/03/06 09:19:56;;;;;;;12.13;5.18;;;;;;;;;;4996648;28;20057;-91
2024/03/06 09:22:22;;;;;;;11.25;5.72;;;;;;;;;;4993467;28;20022;-92
2024/03/06 09:24:48;;;;;;;10.88;6.28;;;;;;;;;;4984632;28;20277;-90
2024/03/06 09:27:14;;;;;;;10.00;6.53;;;;;;;;;;4972582;28;20019;-94
2024/03/06 09:29:39;;;;;;;11.43;6.95;;;;;;;;;;4981412;28;20042;-94
2024/03/06 09:32:04;;;;;;;16.52;6.85;;;;;;;;;;4989654;28;20069;-94
2024/03/06 09:34:29;;;;;;;19.20;8.15;;;;;;;;;;4985800;28;20035;-92
2024/03/06 09:36:55;;;;;;;15.33;6.87;;;;;;;;;;4991148;28;20030;-92
2024/03/06 09:39:22;;;;;;;10.80;6.35;;;;;;;;;;4984372;28;20266;-94
2024/03/06 09:41:48;;;;;;;13.98;7.00;;;;;;;;;;4980080;28;20033;-92
2024/03/06 09:44:14;;;;;;;12.52;6.47;;;;;;;;;;4977208;28;20106;-93
2024/03/06 09:46:47;;;;;;;9.45;6.53;;;;;;;;;;4974513;28;20014;-95
2024/03/06 09:49:14;;;;;;;13.93;7.50;;;;;;;;;;4992738;28;20054;-94
2024/03/06 09:51:42;;;;;;;15.77;7.22;;;;;;;;;;4992679;28;20113;-95
2024/03/06 09:54:07;;;;;;;17.95;9.13;;;;;;;;;;4991761;28;20444;-93
2024/03/06 09:56:33;;;;;;;17.73;8.73;;;;;;;;;;4991363;28;20054;-95
2024/03/06 09:58:58;;;;;;;14.43;8.10;;;;;;;;;;4988580;28;20507;-94
2024/03/06 10:01:24;;;;;;;12.63;7.63;;;;;;;;;;4971959;28;20068;-95
2024/03/06 10:03:50;;;;;;;11.88;7.60;;;;;;;;;;4972166;28;20256;-94
2024/03/06 10:06:16;;;;;;;9.48;5.78;;;;;;;;;;4973199;28;20102;-93
2024/03/06 10:08:41;;;;;;;10.75;5.65;;;;;;;;;;4971748;28;20613;-95
2024/03/06 10:11:07;;;;;;;15.20;5.13;;;;;;;;;;4971945;28;20034;-93
2024/03/06 10:13:32;;;;;;;13.70;5.57;;;;;;;;;;4973280;28;20369;-93
2024/03/06 10:15:59;;;;;;;13.10;5.33;;;;;;;;;;4971950;28;20106;-92
2024/03/06 10:18:26;;;;;;;10.52;3.92;;;;;;;;;;4971784;28;20404;-93
2024/03/06 10:20:53;;;;;;;13.57;4.60;;;;;;;;;;4984682;28;20026;-93
2024/03/06 10:23:18;;;;;;;16.58;4.05;;;;;;;;;;4972894;28;20022;-93
2024/03/06 10:25:44;;;;;;;14.50;3.75;;;;;;;;;;4979133;28;20028;-92
2024/03/06 10:28:11;;;;;;;14.60;4.07;;;;;;;;;;4978054;28;20030;-92
2024/03/06 10:30:42;;;;;;;16.10;4.00;;;;;;;;;;4992000;28;20101;-92
2024/03/06 10:33:08;;;;;;;15.18;3.80;;;;;;;;;;4990811;28;20023;-93
2024/03/06 10:35:34;;;;;;;13.50;3.40;;;;;;;;;;4990037;28;20034;-93
2024/03/06 10:38:02;;;;;;;15.25;4.50;;;;;;;;;;4978204;28;20049;-94
2024/03/06 10:40:31;;;;;;;16.77;5.25;;;;;;;;;;4972233;28;20377;-95
2024/03/06 10:42:56;;;;;;;25.58;5.25;;;;;;;;;;4977444;28;20054;-95
2024/03/06 10:45:23;;;;;;;14.98;4.97;;;;;;;;;;4976873;28;20050;-95
2024/03/06 10:47:50;;;;;;;19.05;4.65;;;;;;;;;;4974910;28;20034;-94
2024/03/06 10:50:15;;;;;;;15.55;5.07;;;;;;;;;;4982490;28;20050;-96
2024/03/06 10:52:41;;;;;;;17.10;5.63;;;;;;;;;;4981154;28;20026;-95
2024/03/06 10:55:07;;;;;;;14.02;5.60;;;;;;;;;;4981170;28;20019;-96
2024/03/06 10:57:32;;;;;;;14.65;5.90;;;;;;;;;;4970950;28;20050;-95
2024/03/06 11:00:00;;;;;;;14.48;5.80;;;;;;;;;;4977099;28;20019;-95
2024/03/06 11:02:27;;;;;;;11.45;5.10;;;;;;;;;;4971031;28;20388;-95
2024/03/06 11:04:53;;;;;;;10.48;4.63;;;;;;;;;;4980924;28;20126;-94
2024/03/06 11:07:18;;;;;;;13.15;4.05;;;;;;;;;;4986118;28;20535;-95
2024/03/06 11:09:43;;;;;;;12.52;5.15;;;;;;;;;;4979315;28;20069;-96
2024/03/06 11:12:09;;;;;;;11.77;4.17;;;;;;;;;;4973445;28;20135;-95
2024/03/06 11:14:38;;;;;;;17.30;4.78;;;;;;;;;;4978765;28;20743;-96
2024/03/06 11:17:08;;;;;;;15.52;4.40;;;;;;;;;;4981027;28;20369;-96
2024/03/06 11:19:53;;;;;;;12.20;4.97;;;;;;;;;;4984894;28;20101;-95
2024/03/06 11:22:39;;;;;;;14.93;5.93;;;;;;;;;;4974184;28;20030;-94
2024/03/06 11:25:04;;;;;;;17.23;4.88;;;;;;;;;;4979275;28;20026;-95
2024/03/06 11:27:29;;;;;;;15.88;6.53;;;;;;;;;;4981110;28;20017;-96
2024/03/06 11:30:10;;;;;;;17.17;6.40;;;;;;;;;;4977337;28;20027;-95
2024/03/06 11:32:36;;;;;;;12.68;4.43;;;;;;;;;;4972375;28;20763;-95
2024/03/06 11:35:01;;;;;;;13.13;5.38;;;;;;;;;;4971705;28;20030;-95
2024/03/06 11:37:26;;;;;;;14.23;4.67;;;;;;;;;;4981212;28;20472;-95
2024/03/06 11:39:59;;;;;;;9.48;4.50;;;;;;;;;;4972766;28;20260;-95
2024/03/06 11:42:33;;;;;;;15.52;5.00;;;;;;;;;;4970564;28;20362;-95
2024/03/06 11:44:59;;;;;;;12.32;4.07;;;;;;;;;;4970287;28;20023;-95
2024/03/06 11:47:24;;;;;;;10.57;3.63;;;;;;;;;;4972375;28;20146;-95
2024/03/06 11:49:51;;;;;;;13.23;4.80;;;;;;;;;;4970870;28;20112;-95
2024/03/06 11:52:16;;;;;;;13.48;4.38;;;;;;;;;;4978793;28;20978;-95
2024/03/06 11:54:41;;;;;;;8.80;4.50;;;;;;;;;;4987673;28;20058;-95
2024/03/06 11:57:07;;;;;;;10.27;4.07;;;;;;;;;;4989330;28;20266;-96
2024/03/06 11:59:32;;;;;;;10.68;3.97;;;;;;;;;;4977074;28;20249;-95
2024/03/06 12:02:01;;;;;;;10.15;4.35;;;;;;;;;;4971341;28;20030;-96
2024/03/06 12:04:26;;;;;;;15.93;4.60;;;;;;;;;;4986403;28;20069;-96
2024/03/06 12:06:52;;;;;;;18.98;4.72;;;;;;;;;;4971426;28;20026;-96
2024/03/06 12:09:17;;;;;;;12.63;3.50;;;;;;;;;;4971596;28;20481;-94
2024/03/06 12:11:45;;;;;;;11.48;2.95;;;;;;;;;;4972668;28;20113;-96
2024/03/06 12:14:21;;;;;;;9.40;3.35;;;;;;;;;;4983863;28;20089;-95
2024/03/06 12:16:58;;;;;;;9.65;2.75;;;;;;;;;;4990118;28;20026;-96
2024/03/06 12:19:27;;;;;;;12.48;4.82;;;;;;;;;;4974472;28;20101;-96
2024/03/06 12:21:53;;;;;;;13.25;3.78;;;;;;;;;;4970223;28;20023;-96
2024/03/06 12:24:19;;;;;;;11.80;3.88;;;;;;;;;;4970497;28;20027;-95
2024/03/06 12:26:44;;;;;;;13.02;4.40;;;;;;;;;;4996889;28;20030;-96
2024/03/06 12:29:16;;;;;;;10.60;4.17;;;;;;;;;;4983524;28;20049;-95
2024/03/06 12:31:41;;;;;;;16.02;3.53;;;;;;;;;;4975359;28;20289;-96
2024/03/06 12:34:07;;;;;;;13.70;2.90;;;;;;;;;;4973221;28;20438;-96
2024/03/06 12:36:33;;;;;;;8.30;2.50;;;;;;;;;;4974054;28;20031;-96
2024/03/06 12:38:59;;;;;;;11.88;2.72;;;;;;;;;;4972886;28;20077;-95
2024/03/06 12:41:26;;;;;;;12.65;2.97;;;;;;;;;;4973057;28;20105;-95
2024/03/06 12:43:51;;;;;;;12.07;3.60;;;;;;;;;;4974013;28;20477;-96
2024/03/06 12:46:16;;;;;;;10.63;3.47;;;;;;;;;;4973849;28;20117;-96
2024/03/06 12:48:41;;;;;;;11.47;3.37;;;;;;;;;;4981705;28;20022;-96
2024/03/06 12:51:07;;;;;;;11.33;2.90;;;;;;;;;;4981071;28;20280;-96
2024/03/06 12:53:35;;;;;;;15.90;2.72;;;;;;;;;;4992467;28;20348;-96
2024/03/06 12:56:01;;;;;;;12.90;3.20;;;;;;;;;;4971115;28;20023;-94
2024/03/06 12:58:26;;;;;;;12.85;3.83;;;;;;;;;;4977853;28;20018;-93
2024/03/06 13:00:52;;;;;;;10.30;3.30;;;;;;;;;;4973295;28;20153;-93
2024/03/06 13:03:17;;;;;;;12.80;3.40;;;;;;;;;;4976833;28;20291;-94
2024/03/06 13:05:42;;;;;;;11.88;3.75;;;;;;;;;;4972544;28;20089;-93
2024/03/06 13:08:08;;;;;;;14.95;3.50;;;;;;;;;;4976105;28;20033;-93
2024/03/06 13:10:33;;;;;;;12.77;3.85;;;;;;;;;;4979374;28;20035;-93
2024/03/06 13:12:58;;;;;;;11.35;3.10;;;;;;;;;;4980056;28;20592;-93
2024/03/06 13:15:23;;;;;;;12.53;3.73;;;;;;;;;;4972800;28;20030;-92
2024/03/06 13:17:48;;;;;;;11.90;3.73;;;;;;;;;;4986197;28;20022;-94
2024/03/06 13:20:14;;;;;;;9.93;2.70;;;;;;;;;;4970000;28;20593;-93
2024/03/06 13:22:39;;;;;;;11.40;2.80;;;;;;;;;;4980935;28;20685;-93
2024/03/06 13:25:04;;;;;;;13.85;3.17;;;;;;;;;;4977515;28;20322;-93
2024/03/06 13:27:30;;;;;;;11.02;3.17;;;;;;;;;;4970835;28;20034;-93
2024/03/06 13:29:55;;;;;;;12.13;3.25;;;;;;;;;;4975694;28;20011;-94
2024/03/06 13:32:20;;;;;;;8.83;2.80;;;;;;;;;;4971598;28;20034;-93
2024/03/06 13:34:45;;;;;;;12.47;3.20;;;;;;;;;;4978035;28;20315;-92
2024/03/06 13:37:11;;;;;;;14.75;4.45;;;;;;;;;;4973592;28;20264;-94
2024/03/06 13:39:36;;;;;;;8.00;3.37;;;;;;;;;;4973034;28;20442;-93
2024/03/06 13:42:01;;;;;;;10.23;2.95;;;;;;;;;;4967821;28;20682;-92
2024/03/06 13:44:26;;;;;;;10.20;2.63;;;;;;;;;;4983792;28;20034;-93
2024/03/06 13:46:52;;;;;;;8.83;2.30;;;;;;;;;;4983028;28;20812;-93
2024/03/06 13:49:36;;;;;;;9.15;2.70;;;;;;;;;;4981730;28;20777;-93
2024/03/06 13:52:02;;;;;;;11.23;3.42;;;;;;;;;;4983159;28;20030;-93
2024/03/06 13:54:27;;;;;;;13.65;3.13;;;;;;;;;;4972402;28;20429;-92
2024/03/06 13:56:55;;;;;;;12.27;3.10;;;;;;;;;;4978479;28;20022;-92
2024/03/06 13:59:21;;;;;;;14.48;3.00;;;;;;;;;;4965946;28;20267;-91
2024/03/06 14:01:46;;;;;;;16.80;3.47;;;;;;;;;;4971900;28;20027;-93
2024/03/06 14:04:11;;;;;;;8.10;2.50;;;;;;;;;;4976115;28;20252;-92
2024/03/06 14:06:36;;;;;;;12.80;2.63;;;;;;;;;;4971718;28;20260;-92
2024/03/06 14:09:01;;;;;;;10.02;2.22;;;;;;;;;;4968494;28;20260;-93
2024/03/06 14:11:27;;;;;;;16.15;2.97;;;;;;;;;;4988746;28;20054;-95
2024/03/06 14:13:52;;;;;;;9.60;2.33;;;;;;;;;;4991040;28;20098;-95
2024/03/06 14:16:17;;;;;;;15.48;2.97;;;;;;;;;;4987157;28;20634;-96
2024/03/06 14:18:42;;;;;;;10.30;2.28;;;;;;;;;;4979789;28;20050;-95
2024/03/06 14:21:08;;;;;;;8.32;2.13;;;;;;;;;;4982291;28;20014;-95
2024/03/06 14:23:33;;;;;;;10.32;3.38;;;;;;;;;;4978541;28;20548;-96
2024/03/06 14:25:58;;;;;;;15.82;2.88;;;;;;;;;;4977180;28;20031;-95